This is the latest recevied weather packets stored in our database for station/object HP3ICC-22. If no packets are shown the sender has not sent any weather packets the latest 10 day(s).
| Time | Temp. | Humidity | Pressure | Rain* | Wind** | Luminosity | Snow |
|---|---|---|---|---|---|---|---|
| 1777352286 | 8.33° C | 73% | 1016 hPa | 0 mm | - | - | - |
| 1777351145 | 9.44° C | 70% | 1016 hPa | 0 mm | - | - | - |
| 1777351085 | 9.44° C | 70% | 1016 hPa | 0 mm | - | - | - |
| 1777349945 | 8.33° C | 78% | 1015 hPa | 0 mm | - | - | - |
| 1777349885 | 8.33° C | 78% | 1015 hPa | 0 mm | - | - | - |
| 1777348744 | 8.89° C | 78% | 1015 hPa | 0 mm | - | - | - |
| 1777348684 | 8.89° C | 78% | 1015 hPa | 0 mm | - | - | - |
| 1777347544 | 8.89° C | 72% | 1015 hPa | 0 mm | - | - | - |
| 1777347483 | 8.89° C | 72% | 1015 hPa | 0 mm | - | - | - |
| 1777346343 | 10° C | 70% | 1014 hPa | 0 mm | - | - | - |
| 1777346283 | 10° C | 70% | 1014 hPa | 0 mm | - | - | - |
| 1777345142 | 8.33° C | 79% | 1015 hPa | 0 mm | - | - | - |
| 1777345082 | 8.33° C | 79% | 1015 hPa | 0 mm | - | - | - |
| 1777343942 | 8.89° C | 79% | 1015 hPa | 0 mm | - | - | - |
| 1777343882 | 8.89° C | 79% | 1015 hPa | 0 mm | - | - | - |
| 1777342741 | 9.44° C | 79% | 1013 hPa | 0 mm | - | - | - |
| 1777342681 | 9.44° C | 79% | 1013 hPa | 0 mm | - | - | - |
| 1777341541 | 9.44° C | 73% | 1015 hPa | 0 mm | - | - | - |
| 1777341480 | 9.44° C | 73% | 1015 hPa | 0 mm | - | - | - |
| 1777340340 | 10.56° C | 70% | 1015 hPa | 0 mm | - | - | - |
| 1777340280 | 10.56° C | 70% | 1015 hPa | 0 mm | - | - | - |
| 1777339140 | 9.44° C | 74% | 1013 hPa | 0 mm | - | - | - |
| 1777339080 | 9.44° C | 74% | 1013 hPa | 0 mm | - | - | - |
| 1777337939 | 9.44° C | 74% | 1014 hPa | 0 mm | - | - | - |
| 1777337879 | 9.44° C | 74% | 1014 hPa | 0 mm | - | - | - |
* Rain latest hour (hover to see other rain measurements)
** Current wind speed in m/s (hover to see current wind gust speed)